sensor_id;sensor_type;location;lat;lon;timestamp;P1;durP1;ratioP1;P2;durP2;ratioP2
57551;SDS011;43379;48.160;14.036;2023-04-01T00:02:07;2.23;;;1.67;;
57551;SDS011;43379;48.160;14.036;2023-04-01T00:04:33;6.10;;;1.63;;
57551;SDS011;43379;48.160;14.036;2023-04-01T00:06:58;3.03;;;1.40;;
57551;SDS011;43379;48.160;14.036;2023-04-01T00:09:25;2.70;;;1.63;;
57551;SDS011;43379;48.160;14.036;2023-04-01T00:11:50;2.60;;;1.27;;
57551;SDS011;43379;48.160;14.036;2023-04-01T00:14:17;4.27;;;1.20;;
57551;SDS011;43379;48.160;14.036;2023-04-01T00:16:43;4.43;;;1.20;;
57551;SDS011;43379;48.160;14.036;2023-04-01T00:19:08;2.57;;;1.27;;
57551;SDS011;43379;48.160;14.036;2023-04-01T00:21:34;2.27;;;1.40;;
57551;SDS011;43379;48.160;14.036;2023-04-01T00:24:01;1.40;;;0.90;;
57551;SDS011;43379;48.160;14.036;2023-04-01T00:26:27;2.33;;;1.27;;
57551;SDS011;43379;48.160;14.036;2023-04-01T00:28:53;3.97;;;1.20;;
57551;SDS011;43379;48.160;14.036;2023-04-01T00:31:19;1.77;;;1.23;;
57551;SDS011;43379;48.160;14.036;2023-04-01T00:33:45;1.40;;;1.30;;
57551;SDS011;43379;48.160;14.036;2023-04-01T00:36:12;4.03;;;1.47;;
57551;SDS011;43379;48.160;14.036;2023-04-01T00:38:39;3.57;;;1.20;;
57551;SDS011;43379;48.160;14.036;2023-04-01T00:41:06;2.20;;;1.37;;
57551;SDS011;43379;48.160;14.036;2023-04-01T00:43:32;2.70;;;1.60;;
57551;SDS011;43379;48.160;14.036;2023-04-01T00:45:58;2.70;;;1.63;;
57551;SDS011;43379;48.160;14.036;2023-04-01T00:48:25;2.80;;;1.57;;
57551;SDS011;43379;48.160;14.036;2023-04-01T00:53:38;1.53;;;1.00;;
57551;SDS011;43379;48.160;14.036;2023-04-01T00:56:12;4.90;;;1.67;;
57551;SDS011;43379;48.160;14.036;2023-04-01T00:58:44;2.60;;;1.23;;
57551;SDS011;43379;48.160;14.036;2023-04-01T01:01:13;2.27;;;1.00;;
57551;SDS011;43379;48.160;14.036;2023-04-01T01:03:40;2.73;;;1.30;;
57551;SDS011;43379;48.160;14.036;2023-04-01T01:11:47;3.53;;;1.23;;
57551;SDS011;43379;48.160;14.036;2023-04-01T01:17:38;2.50;;;1.07;;
57551;SDS011;43379;48.160;14.036;2023-04-01T01:22:52;2.67;;;1.23;;
57551;SDS011;43379;48.160;14.036;2023-04-01T01:28:47;1.83;;;1.00;;
57551;SDS011;43379;48.160;14.036;2023-04-01T01:32:27;1.70;;;1.33;;
57551;SDS011;43379;48.160;14.036;2023-04-01T01:37:02;1.60;;;1.07;;
57551;SDS011;43379;48.160;14.036;2023-04-01T01:39:33;1.53;;;1.33;;
57551;SDS011;43379;48.160;14.036;2023-04-01T01:42:02;1.90;;;1.10;;
57551;SDS011;43379;48.160;14.036;2023-04-01T01:44:31;2.70;;;1.70;;
57551;SDS011;43379;48.160;14.036;2023-04-01T01:46:58;2.10;;;0.83;;
57551;SDS011;43379;48.160;14.036;2023-04-01T01:49:25;3.03;;;0.90;;
57551;SDS011;43379;48.160;14.036;2023-04-01T01:51:55;1.13;;;0.90;;
57551;SDS011;43379;48.160;14.036;2023-04-01T01:54:21;1.73;;;0.80;;
57551;SDS011;43379;48.160;14.036;2023-04-01T01:56:47;3.30;;;0.90;;
57551;SDS011;43379;48.160;14.036;2023-04-01T01:59:16;3.23;;;1.37;;
57551;SDS011;43379;48.160;14.036;2023-04-01T02:01:46;1.97;;;0.87;;
57551;SDS011;43379;48.160;14.036;2023-04-01T02:04:16;1.90;;;1.00;;
57551;SDS011;43379;48.160;14.036;2023-04-01T02:07:02;1.50;;;1.20;;
57551;SDS011;43379;48.160;14.036;2023-04-01T02:09:30;1.40;;;1.00;;
57551;SDS011;43379;48.160;14.036;2023-04-01T02:11:57;1.43;;;1.10;;
57551;SDS011;43379;48.160;14.036;2023-04-01T02:17:01;1.70;;;0.80;;
57551;SDS011;43379;48.160;14.036;2023-04-01T02:19:43;2.60;;;1.00;;
57551;SDS011;43379;48.160;14.036;2023-04-01T02:22:32;1.20;;;0.83;;
57551;SDS011;43379;48.160;14.036;2023-04-01T02:25:07;1.47;;;1.00;;
57551;SDS011;43379;48.160;14.036;2023-04-01T02:27:35;0.97;;;0.93;;
57551;SDS011;43379;48.160;14.036;2023-04-01T02:30:01;1.10;;;0.80;;
57551;SDS011;43379;48.160;14.036;2023-04-01T02:32:28;0.90;;;0.70;;
57551;SDS011;43379;48.160;14.036;2023-04-01T02:34:56;1.80;;;0.90;;
57551;SDS011;43379;48.160;14.036;2023-04-01T02:37:24;1.70;;;0.70;;
57551;SDS011;43379;48.160;14.036;2023-04-01T02:39:49;1.00;;;0.73;;
57551;SDS011;43379;48.160;14.036;2023-04-01T02:42:15;2.87;;;0.80;;
57551;SDS011;43379;48.160;14.036;2023-04-01T02:44:41;2.60;;;0.70;;
57551;SDS011;43379;48.160;14.036;2023-04-01T02:47:06;2.10;;;0.90;;
57551;SDS011;43379;48.160;14.036;2023-04-01T02:49:32;1.70;;;1.00;;
57551;SDS011;43379;48.160;14.036;2023-04-01T02:51:57;2.30;;;0.80;;
57551;SDS011;43379;48.160;14.036;2023-04-01T02:54:23;1.87;;;0.87;;
57551;SDS011;43379;48.160;14.036;2023-04-01T02:56:49;1.50;;;1.30;;
57551;SDS011;43379;48.160;14.036;2023-04-01T02:59:14;1.13;;;0.90;;
57551;SDS011;43379;48.160;14.036;2023-04-01T03:01:40;0.80;;;0.70;;
57551;SDS011;43379;48.160;14.036;2023-04-01T03:04:06;1.60;;;1.00;;
57551;SDS011;43379;48.160;14.036;2023-04-01T03:06:31;3.83;;;1.10;;
57551;SDS011;43379;48.160;14.036;2023-04-01T03:08:57;1.67;;;0.90;;
57551;SDS011;43379;48.160;14.036;2023-04-01T03:11:23;2.20;;;1.03;;
57551;SDS011;43379;48.160;14.036;2023-04-01T03:13:48;4.50;;;0.90;;
57551;SDS011;43379;48.160;14.036;2023-04-01T03:16:14;1.43;;;0.80;;
57551;SDS011;43379;48.160;14.036;2023-04-01T03:18:40;1.70;;;0.80;;
57551;SDS011;43379;48.160;14.036;2023-04-01T03:21:12;2.20;;;1.17;;
57551;SDS011;43379;48.160;14.036;2023-04-01T03:23:43;2.40;;;0.90;;
57551;SDS011;43379;48.160;14.036;2023-04-01T03:26:08;0.80;;;0.50;;
57551;SDS011;43379;48.160;14.036;2023-04-01T03:28:34;1.60;;;0.70;;
57551;SDS011;43379;48.160;14.036;2023-04-01T03:31:00;1.13;;;0.87;;
57551;SDS011;43379;48.160;14.036;2023-04-01T03:33:26;3.70;;;1.20;;
57551;SDS011;43379;48.160;14.036;2023-04-01T03:35:51;1.37;;;0.80;;
57551;SDS011;43379;48.160;14.036;2023-04-01T03:38:17;3.17;;;1.80;;
57551;SDS011;43379;48.160;14.036;2023-04-01T03:40:43;1.73;;;0.83;;
57551;SDS011;43379;48.160;14.036;2023-04-01T03:43:09;1.10;;;0.90;;
57551;SDS011;43379;48.160;14.036;2023-04-01T03:45:36;1.90;;;1.03;;
57551;SDS011;43379;48.160;14.036;2023-04-01T03:48:11;2.40;;;1.10;;
57551;SDS011;43379;48.160;14.036;2023-04-01T03:50:37;0.90;;;0.80;;
57551;SDS011;43379;48.160;14.036;2023-04-01T03:53:02;2.50;;;1.10;;
57551;SDS011;43379;48.160;14.036;2023-04-01T03:55:28;1.27;;;0.80;;
57551;SDS011;43379;48.160;14.036;2023-04-01T03:57:53;2.20;;;1.10;;
57551;SDS011;43379;48.160;14.036;2023-04-01T04:00:19;1.40;;;0.90;;
57551;SDS011;43379;48.160;14.036;2023-04-01T04:02:45;3.23;;;1.37;;
57551;SDS011;43379;48.160;14.036;2023-04-01T04:05:10;1.77;;;0.97;;
57551;SDS011;43379;48.160;14.036;2023-04-01T04:07:38;1.47;;;1.30;;
57551;SDS011;43379;48.160;14.036;2023-04-01T04:10:03;1.10;;;0.70;;
57551;SDS011;43379;48.160;14.036;2023-04-01T04:12:30;1.40;;;0.90;;
57551;SDS011;43379;48.160;14.036;2023-04-01T04:14:55;1.90;;;0.70;;
57551;SDS011;43379;48.160;14.036;2023-04-01T04:17:21;3.37;;;1.20;;
57551;SDS011;43379;48.160;14.036;2023-04-01T04:19:47;1.63;;;0.80;;
57551;SDS011;43379;48.160;14.036;2023-04-01T04:22:12;1.33;;;0.80;;
57551;SDS011;43379;48.160;14.036;2023-04-01T04:24:38;1.97;;;0.77;;
57551;SDS011;43379;48.160;14.036;2023-04-01T04:27:04;1.07;;;0.83;;
57551;SDS011;43379;48.160;14.036;2023-04-01T04:29:30;1.80;;;0.87;;
57551;SDS011;43379;48.160;14.036;2023-04-01T04:31:55;2.70;;;1.10;;
57551;SDS011;43379;48.160;14.036;2023-04-01T04:34:21;2.37;;;1.03;;
57551;SDS011;43379;48.160;14.036;2023-04-01T04:36:47;1.53;;;0.83;;
57551;SDS011;43379;48.160;14.036;2023-04-01T04:39:14;1.97;;;1.20;;
57551;SDS011;43379;48.160;14.036;2023-04-01T04:41:40;1.93;;;1.03;;
57551;SDS011;43379;48.160;14.036;2023-04-01T04:44:06;1.30;;;0.90;;
57551;SDS011;43379;48.160;14.036;2023-04-01T04:46:32;2.60;;;0.90;;
57551;SDS011;43379;48.160;14.036;2023-04-01T04:48:58;1.43;;;0.87;;
57551;SDS011;43379;48.160;14.036;2023-04-01T04:51:24;4.37;;;1.10;;
57551;SDS011;43379;48.160;14.036;2023-04-01T04:53:50;2.60;;;1.03;;
57551;SDS011;43379;48.160;14.036;2023-04-01T04:56:20;1.30;;;1.00;;
57551;SDS011;43379;48.160;14.036;2023-04-01T04:58:47;1.70;;;1.10;;
57551;SDS011;43379;48.160;14.036;2023-04-01T05:01:14;1.93;;;1.33;;
57551;SDS011;43379;48.160;14.036;2023-04-01T05:03:41;2.43;;;1.10;;
57551;SDS011;43379;48.160;14.036;2023-04-01T05:06:07;1.60;;;1.10;;
57551;SDS011;43379;48.160;14.036;2023-04-01T05:08:34;2.17;;;1.17;;
57551;SDS011;43379;48.160;14.036;2023-04-01T05:11:01;1.53;;;0.97;;
57551;SDS011;43379;48.160;14.036;2023-04-01T05:13:27;1.93;;;1.03;;
57551;SDS011;43379;48.160;14.036;2023-04-01T05:15:54;2.50;;;1.30;;
57551;SDS011;43379;48.160;14.036;2023-04-01T05:18:20;2.40;;;1.10;;
57551;SDS011;43379;48.160;14.036;2023-04-01T05:20:48;1.20;;;1.10;;
57551;SDS011;43379;48.160;14.036;2023-04-01T05:23:15;2.03;;;0.80;;
57551;SDS011;43379;48.160;14.036;2023-04-01T05:25:41;1.83;;;1.17;;
57551;SDS011;43379;48.160;14.036;2023-04-01T05:28:07;5.00;;;2.60;;
57551;SDS011;43379;48.160;14.036;2023-04-01T05:30:33;7.47;;;3.80;;
57551;SDS011;43379;48.160;14.036;2023-04-01T05:32:59;3.37;;;2.60;;
57551;SDS011;43379;48.160;14.036;2023-04-01T05:35:25;3.40;;;2.17;;
57551;SDS011;43379;48.160;14.036;2023-04-01T05:37:50;3.53;;;2.03;;
57551;SDS011;43379;48.160;14.036;2023-04-01T05:40:16;1.93;;;1.83;;
57551;SDS011;43379;48.160;14.036;2023-04-01T05:42:42;2.17;;;2.00;;
57551;SDS011;43379;48.160;14.036;2023-04-01T05:45:07;1.73;;;1.63;;
57551;SDS011;43379;48.160;14.036;2023-04-01T05:47:33;8.17;;;2.73;;
57551;SDS011;43379;48.160;14.036;2023-04-01T05:49:59;2.97;;;2.77;;
57551;SDS011;43379;48.160;14.036;2023-04-01T05:52:25;2.70;;;2.37;;
57551;SDS011;43379;48.160;14.036;2023-04-01T05:54:50;2.67;;;2.33;;
57551;SDS011;43379;48.160;14.036;2023-04-01T05:57:16;2.60;;;1.50;;
57551;SDS011;43379;48.160;14.036;2023-04-01T05:59:42;2.03;;;1.20;;
57551;SDS011;43379;48.160;14.036;2023-04-01T06:02:08;5.63;;;2.57;;
57551;SDS011;43379;48.160;14.036;2023-04-01T06:04:38;2.50;;;2.30;;
57551;SDS011;43379;48.160;14.036;2023-04-01T06:07:09;2.70;;;1.80;;
57551;SDS011;43379;48.160;14.036;2023-04-01T06:09:37;3.07;;;1.93;;
57551;SDS011;43379;48.160;14.036;2023-04-01T06:20:42;2.67;;;1.40;;
57551;SDS011;43379;48.160;14.036;2023-04-01T06:23:40;1.87;;;1.27;;
57551;SDS011;43379;48.160;14.036;2023-04-01T06:26:33;3.00;;;1.17;;
57551;SDS011;43379;48.160;14.036;2023-04-01T06:37:23;1.30;;;1.20;;
57551;SDS011;43379;48.160;14.036;2023-04-01T06:40:16;1.37;;;1.20;;
57551;SDS011;43379;48.160;14.036;2023-04-01T06:51:21;2.60;;;1.10;;
57551;SDS011;43379;48.160;14.036;2023-04-01T06:56:42;1.70;;;1.30;;
57551;SDS011;43379;48.160;14.036;2023-04-01T06:59:17;1.97;;;1.37;;
57551;SDS011;43379;48.160;14.036;2023-04-01T07:04:16;1.27;;;0.90;;
57551;SDS011;43379;48.160;14.036;2023-04-01T07:06:56;1.13;;;0.90;;
57551;SDS011;43379;48.160;14.036;2023-04-01T07:09:26;1.20;;;0.77;;
57551;SDS011;43379;48.160;14.036;2023-04-01T07:11:56;1.40;;;0.67;;
57551;SDS011;43379;48.160;14.036;2023-04-01T07:14:36;0.90;;;0.60;;
57551;SDS011;43379;48.160;14.036;2023-04-01T07:17:06;2.03;;;0.80;;
57551;SDS011;43379;48.160;14.036;2023-04-01T07:19:47;1.00;;;0.70;;
57551;SDS011;43379;48.160;14.036;2023-04-01T07:22:40;1.33;;;0.80;;
57551;SDS011;43379;48.160;14.036;2023-04-01T07:25:15;1.43;;;0.70;;
57551;SDS011;43379;48.160;14.036;2023-04-01T07:27:46;0.70;;;0.50;;
57551;SDS011;43379;48.160;14.036;2023-04-01T07:30:16;1.20;;;0.70;;
57551;SDS011;43379;48.160;14.036;2023-04-01T07:32:48;1.47;;;1.00;;
57551;SDS011;43379;48.160;14.036;2023-04-01T07:35:26;1.20;;;0.67;;
57551;SDS011;43379;48.160;14.036;2023-04-01T07:45:57;5.10;;;0.73;;
57551;SDS011;43379;48.160;14.036;2023-04-01T07:53:53;1.30;;;1.10;;
57551;SDS011;43379;48.160;14.036;2023-04-01T07:56:35;1.57;;;0.80;;
57551;SDS011;43379;48.160;14.036;2023-04-01T07:59:44;1.27;;;0.90;;
57551;SDS011;43379;48.160;14.036;2023-04-01T08:07:25;1.57;;;1.20;;
57551;SDS011;43379;48.160;14.036;2023-04-01T08:12:56;3.47;;;1.00;;
57551;SDS011;43379;48.160;14.036;2023-04-01T08:21:00;1.20;;;0.70;;
57551;SDS011;43379;48.160;14.036;2023-04-01T08:23:30;1.63;;;0.80;;
57551;SDS011;43379;48.160;14.036;2023-04-01T08:31:48;2.30;;;0.90;;
57551;SDS011;43379;48.160;14.036;2023-04-01T08:34:20;4.13;;;0.70;;
57551;SDS011;43379;48.160;14.036;2023-04-01T08:36:53;1.10;;;0.60;;
57551;SDS011;43379;48.160;14.036;2023-04-01T08:39:54;2.40;;;0.97;;
57551;SDS011;43379;48.160;14.036;2023-04-01T09:01:36;1.57;;;0.67;;
57551;SDS011;43379;48.160;14.036;2023-04-01T09:04:32;1.93;;;0.77;;
57551;SDS011;43379;48.160;14.036;2023-04-01T09:07:49;2.27;;;1.10;;
57551;SDS011;43379;48.160;14.036;2023-04-01T09:16:24;2.03;;;0.77;;
57551;SDS011;43379;48.160;14.036;2023-04-01T09:19:16;0.93;;;0.63;;
57551;SDS011;43379;48.160;14.036;2023-04-01T09:27:21;1.73;;;1.30;;
57551;SDS011;43379;48.160;14.036;2023-04-01T09:40:56;1.60;;;0.80;;
57551;SDS011;43379;48.160;14.036;2023-04-01T09:44:03;1.77;;;0.97;;
57551;SDS011;43379;48.160;14.036;2023-04-01T10:22:59;1.40;;;0.93;;
57551;SDS011;43379;48.160;14.036;2023-04-01T10:28:50;3.33;;;0.93;;
57551;SDS011;43379;48.160;14.036;2023-04-01T10:36:54;2.37;;;0.90;;
57551;SDS011;43379;48.160;14.036;2023-04-01T10:53:32;1.50;;;0.80;;
57551;SDS011;43379;48.160;14.036;2023-04-01T11:27:18;1.80;;;1.40;;
57551;SDS011;43379;48.160;14.036;2023-04-01T11:32:55;0.90;;;0.67;;
57551;SDS011;43379;48.160;14.036;2023-04-01T11:35:38;1.77;;;0.97;;
57551;SDS011;43379;48.160;14.036;2023-04-01T11:38:38;1.87;;;0.73;;
57551;SDS011;43379;48.160;14.036;2023-04-01T11:41:35;1.50;;;0.70;;
57551;SDS011;43379;48.160;14.036;2023-04-01T11:44:15;1.70;;;1.30;;
57551;SDS011;43379;48.160;14.036;2023-04-01T11:52:58;2.90;;;0.90;;
57551;SDS011;43379;48.160;14.036;2023-04-01T11:55:25;1.73;;;1.10;;
57551;SDS011;43379;48.160;14.036;2023-04-01T12:03:37;3.37;;;0.80;;
57551;SDS011;43379;48.160;14.036;2023-04-01T12:42:08;1.13;;;0.80;;
57551;SDS011;43379;48.160;14.036;2023-04-01T12:47:24;1.30;;;0.80;;
57551;SDS011;43379;48.160;14.036;2023-04-01T12:50:26;1.20;;;0.77;;
57551;SDS011;43379;48.160;14.036;2023-04-01T12:56:34;1.10;;;0.80;;
57551;SDS011;43379;48.160;14.036;2023-04-01T12:59:29;1.10;;;0.80;;
57551;SDS011;43379;48.160;14.036;2023-04-01T13:10:56;1.20;;;0.63;;
57551;SDS011;43379;48.160;14.036;2023-04-01T13:13:40;1.10;;;0.70;;
57551;SDS011;43379;48.160;14.036;2023-04-01T13:16:25;1.10;;;0.80;;
57551;SDS011;43379;48.160;14.036;2023-04-01T13:18:57;1.40;;;0.90;;
57551;SDS011;43379;48.160;14.036;2023-04-01T13:21:32;1.43;;;0.77;;
57551;SDS011;43379;48.160;14.036;2023-04-01T13:24:18;1.07;;;0.80;;
57551;SDS011;43379;48.160;14.036;2023-04-01T13:26:58;1.10;;;0.70;;
57551;SDS011;43379;48.160;14.036;2023-04-01T13:29:40;0.93;;;0.70;;
57551;SDS011;43379;48.160;14.036;2023-04-01T13:32:38;1.10;;;0.80;;
57551;SDS011;43379;48.160;14.036;2023-04-01T13:35:50;1.03;;;0.90;;
57551;SDS011;43379;48.160;14.036;2023-04-01T13:41:22;1.40;;;0.90;;
57551;SDS011;43379;48.160;14.036;2023-04-01T13:44:13;0.83;;;0.63;;
57551;SDS011;43379;48.160;14.036;2023-04-01T13:55:04;0.90;;;0.50;;
57551;SDS011;43379;48.160;14.036;2023-04-01T13:58:01;0.93;;;0.60;;
57551;SDS011;43379;48.160;14.036;2023-04-01T14:01:06;0.70;;;0.50;;
57551;SDS011;43379;48.160;14.036;2023-04-01T14:14:51;1.17;;;0.60;;
57551;SDS011;43379;48.160;14.036;2023-04-01T14:20:34;1.17;;;0.60;;
57551;SDS011;43379;48.160;14.036;2023-04-01T14:23:24;1.73;;;0.60;;
57551;SDS011;43379;48.160;14.036;2023-04-01T14:32:02;1.23;;;0.80;;
57551;SDS011;43379;48.160;14.036;2023-04-01T14:50:54;0.90;;;0.60;;
57551;SDS011;43379;48.160;14.036;2023-04-01T14:55:56;1.10;;;1.00;;
57551;SDS011;43379;48.160;14.036;2023-04-01T14:58:24;2.50;;;0.90;;
57551;SDS011;43379;48.160;14.036;2023-04-01T15:21:02;1.73;;;0.70;;
57551;SDS011;43379;48.160;14.036;2023-04-01T15:37:15;1.30;;;0.80;;
57551;SDS011;43379;48.160;14.036;2023-04-01T15:48:12;0.80;;;0.80;;
57551;SDS011;43379;48.160;14.036;2023-04-01T15:51:15;1.67;;;0.80;;
57551;SDS011;43379;48.160;14.036;2023-04-01T15:56:48;0.80;;;0.70;;
57551;SDS011;43379;48.160;14.036;2023-04-01T16:02:11;1.00;;;0.90;;
57551;SDS011;43379;48.160;14.036;2023-04-01T16:07:42;1.60;;;0.70;;
57551;SDS011;43379;48.160;14.036;2023-04-01T16:21:03;0.77;;;0.67;;
57551;SDS011;43379;48.160;14.036;2023-04-01T16:23:41;1.10;;;0.70;;
57551;SDS011;43379;48.160;14.036;2023-04-01T16:26:26;0.90;;;0.70;;
57551;SDS011;43379;48.160;14.036;2023-04-01T16:31:48;0.90;;;0.60;;
57551;SDS011;43379;48.160;14.036;2023-04-01T16:34:19;0.80;;;0.70;;
57551;SDS011;43379;48.160;14.036;2023-04-01T16:36:55;0.80;;;0.70;;
57551;SDS011;43379;48.160;14.036;2023-04-01T16:42:17;0.70;;;0.60;;
57551;SDS011;43379;48.160;14.036;2023-04-01T16:47:35;0.73;;;0.70;;
57551;SDS011;43379;48.160;14.036;2023-04-01T16:50:27;1.50;;;1.40;;
57551;SDS011;43379;48.160;14.036;2023-04-01T16:55:50;2.03;;;0.80;;
57551;SDS011;43379;48.160;14.036;2023-04-01T16:58:27;0.80;;;0.70;;
57551;SDS011;43379;48.160;14.036;2023-04-01T17:01:25;0.70;;;0.70;;
57551;SDS011;43379;48.160;14.036;2023-04-01T17:04:00;0.80;;;0.80;;
57551;SDS011;43379;48.160;14.036;2023-04-01T17:06:39;0.80;;;0.70;;
57551;SDS011;43379;48.160;14.036;2023-04-01T17:09:29;1.00;;;0.80;;
57551;SDS011;43379;48.160;14.036;2023-04-01T17:34:05;1.90;;;1.47;;
57551;SDS011;43379;48.160;14.036;2023-04-01T17:36:45;1.03;;;0.93;;
57551;SDS011;43379;48.160;14.036;2023-04-01T17:42:05;0.93;;;0.83;;
57551;SDS011;43379;48.160;14.036;2023-04-01T17:58:34;1.40;;;1.30;;
57551;SDS011;43379;48.160;14.036;2023-04-01T18:01:14;1.37;;;1.10;;
57551;SDS011;43379;48.160;14.036;2023-04-01T18:14:59;1.40;;;1.10;;
57551;SDS011;43379;48.160;14.036;2023-04-01T18:18:02;1.63;;;1.27;;
57551;SDS011;43379;48.160;14.036;2023-04-01T18:26:09;1.20;;;1.10;;
57551;SDS011;43379;48.160;14.036;2023-04-01T18:28:49;1.20;;;1.10;;
57551;SDS011;43379;48.160;14.036;2023-04-01T18:31:22;1.10;;;1.00;;
57551;SDS011;43379;48.160;14.036;2023-04-01T18:42:44;1.77;;;1.67;;
57551;SDS011;43379;48.160;14.036;2023-04-01T18:45:21;2.03;;;1.10;;
57551;SDS011;43379;48.160;14.036;2023-04-01T18:51:02;1.23;;;1.13;;
57551;SDS011;43379;48.160;14.036;2023-04-01T19:03:43;1.83;;;1.73;;
57551;SDS011;43379;48.160;14.036;2023-04-01T19:06:34;1.00;;;1.00;;
57551;SDS011;43379;48.160;14.036;2023-04-01T19:09:18;1.47;;;1.10;;
57551;SDS011;43379;48.160;14.036;2023-04-01T19:11:54;1.10;;;1.00;;
57551;SDS011;43379;48.160;14.036;2023-04-01T19:17:15;1.10;;;1.00;;
57551;SDS011;43379;48.160;14.036;2023-04-01T19:22:34;2.57;;;0.90;;
57551;SDS011;43379;48.160;14.036;2023-04-01T19:25:24;0.80;;;0.80;;
57551;SDS011;43379;48.160;14.036;2023-04-01T19:30:51;1.33;;;1.23;;
57551;SDS011;43379;48.160;14.036;2023-04-01T19:33:40;1.10;;;0.83;;
57551;SDS011;43379;48.160;14.036;2023-04-01T19:38:47;1.50;;;1.40;;
57551;SDS011;43379;48.160;14.036;2023-04-01T19:41:30;1.70;;;1.27;;
57551;SDS011;43379;48.160;14.036;2023-04-01T19:44:04;1.50;;;1.20;;
57551;SDS011;43379;48.160;14.036;2023-04-01T19:47:12;1.50;;;1.00;;
57551;SDS011;43379;48.160;14.036;2023-04-01T19:54:43;1.73;;;1.63;;
57551;SDS011;43379;48.160;14.036;2023-04-01T20:02:34;1.10;;;1.00;;
57551;SDS011;43379;48.160;14.036;2023-04-01T20:05:28;2.20;;;1.37;;
57551;SDS011;43379;48.160;14.036;2023-04-01T20:10:42;2.13;;;1.67;;
57551;SDS011;43379;48.160;14.036;2023-04-01T20:13:41;1.50;;;1.40;;
57551;SDS011;43379;48.160;14.036;2023-04-01T20:16:11;2.07;;;1.33;;
57551;SDS011;43379;48.160;14.036;2023-04-01T20:23:58;1.63;;;1.53;;
57551;SDS011;43379;48.160;14.036;2023-04-01T20:26:37;2.03;;;1.20;;
57551;SDS011;43379;48.160;14.036;2023-04-01T20:45:42;1.83;;;1.50;;
57551;SDS011;43379;48.160;14.036;2023-04-01T20:50:50;1.50;;;1.40;;
57551;SDS011;43379;48.160;14.036;2023-04-01T21:01:33;1.80;;;1.70;;
57551;SDS011;43379;48.160;14.036;2023-04-01T21:26:20;1.40;;;1.30;;
57551;SDS011;43379;48.160;14.036;2023-04-01T21:34:44;1.20;;;0.90;;
57551;SDS011;43379;48.160;14.036;2023-04-01T22:00:25;1.20;;;1.10;;
57551;SDS011;43379;48.160;14.036;2023-04-01T22:08:47;1.40;;;1.30;;
57551;SDS011;43379;48.160;14.036;2023-04-01T22:11:22;1.30;;;0.97;;
57551;SDS011;43379;48.160;14.036;2023-04-01T22:13:59;1.10;;;1.00;;
57551;SDS011;43379;48.160;14.036;2023-04-01T22:16:59;1.00;;;0.90;;
57551;SDS011;43379;48.160;14.036;2023-04-01T22:28:24;1.07;;;0.80;;
57551;SDS011;43379;48.160;14.036;2023-04-01T22:30:59;1.50;;;0.90;;
57551;SDS011;43379;48.160;14.036;2023-04-01T22:33:31;0.97;;;0.80;;
57551;SDS011;43379;48.160;14.036;2023-04-01T22:41:19;0.87;;;0.67;;
57551;SDS011;43379;48.160;14.036;2023-04-01T22:43:54;1.27;;;1.17;;
57551;SDS011;43379;48.160;14.036;2023-04-01T22:51:43;0.60;;;0.60;;
57551;SDS011;43379;48.160;14.036;2023-04-01T22:54:21;1.37;;;0.73;;
57551;SDS011;43379;48.160;14.036;2023-04-01T22:57:02;1.40;;;0.70;;
57551;SDS011;43379;48.160;14.036;2023-04-01T22:59:36;0.80;;;0.70;;
57551;SDS011;43379;48.160;14.036;2023-04-01T23:04:54;1.03;;;0.77;;
57551;SDS011;43379;48.160;14.036;2023-04-01T23:10:44;1.20;;;0.83;;
57551;SDS011;43379;48.160;14.036;2023-04-01T23:13:21;1.43;;;0.83;;
57551;SDS011;43379;48.160;14.036;2023-04-01T23:15:52;1.20;;;1.10;;
57551;SDS011;43379;48.160;14.036;2023-04-01T23:18:24;1.03;;;0.80;;
57551;SDS011;43379;48.160;14.036;2023-04-01T23:21:03;0.80;;;0.80;;
57551;SDS011;43379;48.160;14.036;2023-04-01T23:26:46;0.97;;;0.80;;
57551;SDS011;43379;48.160;14.036;2023-04-01T23:29:12;1.50;;;0.90;;
57551;SDS011;43379;48.160;14.036;2023-04-01T23:31:41;1.40;;;0.80;;
57551;SDS011;43379;48.160;14.036;2023-04-01T23:36:47;0.80;;;0.70;;
57551;SDS011;43379;48.160;14.036;2023-04-01T23:39:42;0.80;;;0.70;;
57551;SDS011;43379;48.160;14.036;2023-04-01T23:42:27;1.10;;;1.00;;
57551;SDS011;43379;48.160;14.036;2023-04-01T23:45:05;1.00;;;0.90;;
57551;SDS011;43379;48.160;14.036;2023-04-01T23:47:47;1.00;;;0.90;;
57551;SDS011;43379;48.160;14.036;2023-04-01T23:50:23;0.90;;;0.73;;
57551;SDS011;43379;48.160;14.036;2023-04-01T23:55:25;1.10;;;0.70;;
